createdAt,value
2018-12-18T00:01:44.245Z,40.17
2018-12-18T00:03:46.469Z,39.05
2018-12-18T00:05:48.817Z,40.40
2018-12-18T00:07:51.034Z,39.30
2018-12-18T00:09:54.375Z,41.18
2018-12-18T00:11:59.354Z,38.90
2018-12-18T00:14:00.946Z,41.80
2018-12-18T00:16:03.241Z,39.42
2018-12-18T00:18:05.506Z,39.90
2018-12-18T00:20:07.758Z,43.00
2018-12-18T00:22:10.091Z,40.70
2018-12-18T00:24:12.361Z,39.45
2018-12-18T00:26:14.543Z,41.25
2018-12-18T00:28:16.809Z,40.98
2018-12-18T00:30:19.128Z,40.00
2018-12-18T00:32:21.284Z,41.65
2018-12-18T00:34:23.640Z,41.08
2018-12-18T00:36:25.809Z,41.63
2018-12-18T00:38:28.076Z,43.25
2018-12-18T00:40:30.274Z,40.10
2018-12-18T00:42:33.334Z,43.60
2018-12-18T00:44:35.662Z,43.33
2018-12-18T00:46:38.013Z,45.45
2018-12-18T00:48:40.354Z,44.40
2018-12-18T00:50:42.614Z,44.03
2018-12-18T00:52:44.782Z,44.58
2018-12-18T00:54:47.230Z,42.83
2018-12-18T00:56:49.354Z,43.98
2018-12-18T00:58:51.702Z,44.85
2018-12-18T01:00:54.323Z,43.05
2018-12-18T01:02:56.791Z,45.35
2018-12-18T01:04:58.934Z,45.73
2018-12-18T01:07:01.094Z,43.08
2018-12-18T01:09:05.616Z,44.98
2018-12-18T01:11:07.790Z,46.18
2018-12-18T01:13:10.010Z,42.27
2018-12-18T01:15:12.260Z,43.55
2018-12-18T01:17:14.381Z,46.35
2018-12-18T01:19:16.632Z,44.63
2018-12-18T01:21:18.799Z,46.68
2018-12-18T01:23:21.077Z,43.70
2018-12-18T01:25:23.234Z,43.75
2018-12-18T01:27:25.498Z,48.30
2018-12-18T01:29:27.674Z,47.17
2018-12-18T01:31:29.938Z,46.77
2018-12-18T01:33:32.096Z,44.05
2018-12-18T01:35:34.267Z,42.80
2018-12-18T01:37:36.748Z,47.33
2018-12-18T01:39:39.000Z,43.42
2018-12-18T01:41:41.164Z,49.40
2018-12-18T01:43:43.566Z,48.90
2018-12-18T01:45:45.705Z,43.68
2018-12-18T01:47:47.864Z,46.35
2018-12-18T01:49:50.095Z,45.30
2018-12-18T01:51:52.225Z,46.30
2018-12-18T01:53:54.342Z,47.40
2018-12-18T01:55:56.758Z,44.67
2018-12-18T01:57:58.942Z,45.63
2018-12-18T02:00:01.213Z,43.73
2018-12-18T02:02:03.574Z,45.45
2018-12-18T02:04:06.235Z,43.38
2018-12-18T02:06:08.904Z,43.92
2018-12-18T02:08:11.113Z,44.63
2018-12-18T02:10:13.441Z,42.95
2018-12-18T02:12:15.669Z,45.60
2018-12-18T02:14:17.838Z,47.80
2018-12-18T02:16:19.974Z,46.77
2018-12-18T02:18:22.280Z,48.23
2018-12-18T02:20:24.463Z,49.65
2018-12-18T02:22:26.634Z,47.40
2018-12-18T02:24:28.883Z,44.95
2018-12-18T02:26:31.041Z,45.23
2018-12-18T02:28:33.428Z,45.58
2018-12-18T02:30:35.700Z,44.53
2018-12-18T02:32:38.017Z,46.73
2018-12-18T02:34:40.169Z,46.28
2018-12-18T02:36:42.324Z,48.75
2018-12-18T02:38:44.453Z,48.13
2018-12-18T02:40:46.715Z,49.10
2018-12-18T02:42:49.026Z,46.73
2018-12-18T02:44:51.169Z,48.73
2018-12-18T02:46:53.333Z,46.28
2018-12-18T02:48:55.807Z,48.68
2018-12-18T02:50:57.950Z,43.45
2018-12-18T02:53:00.110Z,44.05
2018-12-18T02:55:02.741Z,46.77
2018-12-18T02:57:05.050Z,46.33
2018-12-18T02:59:07.198Z,42.95
2018-12-18T03:01:09.381Z,45.75
2018-12-18T03:03:11.527Z,46.77
2018-12-18T03:05:13.694Z,44.85
2018-12-18T03:07:16.121Z,44.73
2018-12-18T03:09:18.274Z,44.15
2018-12-18T03:11:20.741Z,44.60
2018-12-18T03:13:22.897Z,44.08
2018-12-18T03:15:25.045Z,40.75
2018-12-18T03:17:27.925Z,43.25
2018-12-18T03:19:30.398Z,43.80
2018-12-18T03:21:32.637Z,40.28
2018-12-18T03:23:34.933Z,42.48
2018-12-18T03:25:37.127Z,44.08
2018-12-18T03:27:39.373Z,43.80
2018-12-18T03:29:41.665Z,44.40
2018-12-18T03:47:44.382Z,39.40
2018-12-18T03:49:46.575Z,40.12
2018-12-18T03:51:48.702Z,42.95
2018-12-18T03:53:51.037Z,40.48
2018-12-18T03:55:53.309Z,41.92
2018-12-18T03:57:55.466Z,43.68
2018-12-18T03:59:57.728Z,42.80
2018-12-18T04:01:59.881Z,42.58
2018-12-18T04:04:02.007Z,45.15
2018-12-18T04:06:04.252Z,41.65
2018-12-18T04:08:06.525Z,42.55
2018-12-18T04:10:08.931Z,45.35
2018-12-18T04:12:15.815Z,41.73
2018-12-18T04:14:18.039Z,41.75
2018-12-18T04:16:20.273Z,42.27
2018-12-18T04:18:22.818Z,38.70
2018-12-18T04:20:25.024Z,43.15
2018-12-18T04:22:27.167Z,43.73
2018-12-18T04:24:29.505Z,44.33
2018-12-18T04:26:31.831Z,42.83
2018-12-18T04:28:33.946Z,43.95
2018-12-18T04:30:36.534Z,42.50
2018-12-18T04:32:38.652Z,44.38
2018-12-18T04:34:43.073Z,45.55
2018-12-18T04:36:45.104Z,40.30
2018-12-18T04:38:47.334Z,40.10
2018-12-18T04:40:49.509Z,40.17
2018-12-18T04:42:51.676Z,41.95
2018-12-18T04:44:54.031Z,38.38
2018-12-18T04:46:56.210Z,40.50
2018-12-18T04:48:58.375Z,42.33
2018-12-18T04:51:00.771Z,38.67
2018-12-18T04:53:03.138Z,36.48
2018-12-18T04:55:05.392Z,42.10
2018-12-18T04:57:07.596Z,34.90
2018-12-18T04:59:09.716Z,35.68
2018-12-18T05:01:11.854Z,34.50
2018-12-18T05:03:14.202Z,34.53
2018-12-18T05:05:16.314Z,31.48
2018-12-18T05:07:18.646Z,35.60
2018-12-18T05:09:21.341Z,33.60
2018-12-18T05:11:23.465Z,33.65
2018-12-18T05:13:25.643Z,35.70
2018-12-18T05:15:27.807Z,30.85
2018-12-18T05:17:30.065Z,33.15
2018-12-18T05:19:32.349Z,31.05
2018-12-18T05:21:34.636Z,33.88
2018-12-18T05:23:36.809Z,32.38
2018-12-18T05:25:39.027Z,31.07
2018-12-18T05:27:41.214Z,31.27
2018-12-18T05:29:43.415Z,31.60
2018-12-18T05:31:45.547Z,31.05
2018-12-18T05:33:47.863Z,30.37
2018-12-18T05:35:50.042Z,30.85
2018-12-18T05:37:52.250Z,29.95
2018-12-18T05:39:54.438Z,31.17
2018-12-18T05:41:56.587Z,31.70
2018-12-18T05:43:58.897Z,30.80
2018-12-18T05:46:01.104Z,29.87
2018-12-18T05:48:03.341Z,29.18
2018-12-18T05:50:06.245Z,31.27
2018-12-18T05:52:08.358Z,31.75
2018-12-18T05:54:10.438Z,30.57
2018-12-18T05:56:12.757Z,29.60
2018-12-18T05:58:14.856Z,26.95
2018-12-18T06:00:17.092Z,29.57
2018-12-18T06:02:19.342Z,30.97
2018-12-18T06:04:21.661Z,30.27
2018-12-18T06:06:23.769Z,30.55
2018-12-18T06:08:27.146Z,29.82
2018-12-18T06:10:29.274Z,27.62
2018-12-18T06:12:31.357Z,29.50
2018-12-18T06:14:33.568Z,31.35
2018-12-18T06:16:35.889Z,29.85
2018-12-18T06:18:38.086Z,28.70
2018-12-18T06:20:40.225Z,30.62
2018-12-18T06:22:42.316Z,28.35
2018-12-18T06:24:44.532Z,28.05
2018-12-18T06:26:50.466Z,31.85
2018-12-18T06:28:52.584Z,28.62
2018-12-18T06:30:54.828Z,28.35
2018-12-18T06:32:56.999Z,31.35
2018-12-18T06:34:59.146Z,31.02
2018-12-18T06:37:01.236Z,28.67
2018-12-18T06:39:06.048Z,29.12
2018-12-18T06:41:08.157Z,29.05
2018-12-18T06:43:10.256Z,27.93
2018-12-18T06:45:12.509Z,31.05
2018-12-18T06:47:14.825Z,32.13
2018-12-18T06:49:17.073Z,29.37
2018-12-18T06:51:19.269Z,30.27
2018-12-18T06:53:21.366Z,31.07
2018-12-18T06:55:23.467Z,31.00
2018-12-18T06:57:25.580Z,31.25
2018-12-18T06:59:27.788Z,28.87
2018-12-18T07:01:30.001Z,30.55
2018-12-18T07:19:34.669Z,25.97
2018-12-18T07:21:36.909Z,28.70
2018-12-18T07:23:39.174Z,29.07
2018-12-18T07:25:41.293Z,30.08
2018-12-18T07:27:43.449Z,28.25
2018-12-18T07:29:45.808Z,28.57
2018-12-18T07:31:48.017Z,32.48
2018-12-18T07:33:50.147Z,31.02
2018-12-18T07:35:52.257Z,33.38
2018-12-18T07:37:55.742Z,29.85
2018-12-18T07:39:57.868Z,30.80
2018-12-18T07:41:59.965Z,29.15
2018-12-18T07:44:02.209Z,31.02
2018-12-18T07:46:04.305Z,32.13
2018-12-18T07:48:06.710Z,33.05
2018-12-18T07:50:09.015Z,33.15
2018-12-18T07:52:11.336Z,31.15
2018-12-18T07:54:13.442Z,32.05
2018-12-18T07:56:15.627Z,32.67
2018-12-18T07:58:18.096Z,32.03
2018-12-18T08:00:20.445Z,31.57
2018-12-18T08:02:22.562Z,32.42
2018-12-18T08:04:24.757Z,30.32
2018-12-18T08:06:26.902Z,32.78
2018-12-18T08:08:29.188Z,32.25
2018-12-18T08:10:31.421Z,29.15
2018-12-18T08:12:33.560Z,31.95
2018-12-18T08:14:35.789Z,34.88
2018-12-18T08:16:37.981Z,31.65
2018-12-18T08:18:40.132Z,35.83
2018-12-18T08:20:42.220Z,34.27
2018-12-18T08:22:44.336Z,33.25
2018-12-18T08:24:46.612Z,34.10
2018-12-18T08:26:50.578Z,33.67
2018-12-18T08:28:52.673Z,31.82
2018-12-18T08:30:55.271Z,29.48
2018-12-18T08:32:57.383Z,30.80
2018-12-18T08:35:01.219Z,34.43
2018-12-18T08:37:03.640Z,32.35
2018-12-18T08:39:07.860Z,32.10
2018-12-18T08:41:09.979Z,32.98
2018-12-18T08:43:12.366Z,32.73
2018-12-18T08:45:14.516Z,30.90
2018-12-18T08:47:16.637Z,32.35
2018-12-18T08:49:19.091Z,31.40
2018-12-18T08:51:21.213Z,31.30
2018-12-18T08:53:23.398Z,31.80
2018-12-18T08:55:25.596Z,32.70
2018-12-18T08:57:27.713Z,31.95
2018-12-18T08:59:29.845Z,31.68
2018-12-18T09:01:31.937Z,30.50
2018-12-18T09:03:34.005Z,29.48
2018-12-18T09:05:42.979Z,26.57
2018-12-18T09:07:41.202Z,28.20
2018-12-18T09:09:43.445Z,27.75
2018-12-18T09:11:46.407Z,29.37
2018-12-18T09:13:48.576Z,29.45
2018-12-18T09:15:56.487Z,29.30
2018-12-18T09:17:58.816Z,29.87
2018-12-18T09:20:00.975Z,29.52
2018-12-18T09:22:03.702Z,28.75
2018-12-18T09:24:05.840Z,27.82
2018-12-18T09:26:08.139Z,28.52
2018-12-18T09:28:10.304Z,27.35
2018-12-18T09:30:14.629Z,27.65
2018-12-18T09:32:18.012Z,24.57
2018-12-18T09:34:20.171Z,25.95
2018-12-18T09:36:22.536Z,22.90
2018-12-18T09:38:30.463Z,24.00
2018-12-18T09:40:38.328Z,24.52
2018-12-18T09:42:46.335Z,25.27
2018-12-18T09:44:48.696Z,23.57
2018-12-18T09:46:56.561Z,25.00
2018-12-18T09:48:58.713Z,23.35
2018-12-18T09:51:00.868Z,24.60
2018-12-18T09:53:03.152Z,23.32
2018-12-18T09:55:05.515Z,24.87
2018-12-18T09:57:13.625Z,24.40
2018-12-18T09:59:15.970Z,25.60
2018-12-18T10:01:18.146Z,22.35
2018-12-18T10:03:20.278Z,22.15
2018-12-18T10:05:22.451Z,24.98
2018-12-18T10:07:24.618Z,23.22
2018-12-18T10:09:26.801Z,25.82
2018-12-18T10:11:29.057Z,25.12
2018-12-18T10:13:31.340Z,23.60
2018-12-18T10:15:33.625Z,23.45
2018-12-18T10:17:35.836Z,23.02
2018-12-18T10:19:38.033Z,23.75
2018-12-18T10:21:40.161Z,26.73
2018-12-18T10:23:42.312Z,24.47
2018-12-18T10:25:44.600Z,26.15
2018-12-18T10:27:46.838Z,24.63
2018-12-18T10:29:49.003Z,23.80
2018-12-18T10:31:51.144Z,23.67
2018-12-18T10:33:53.459Z,23.50
2018-12-18T10:35:55.646Z,25.65
2018-12-18T10:37:57.792Z,26.77
2018-12-18T10:39:59.989Z,25.25
2018-12-18T10:42:02.606Z,24.23
2018-12-18T10:44:04.840Z,23.95
2018-12-18T10:46:07.004Z,24.85
2018-12-18T10:48:09.220Z,24.05
2018-12-18T10:50:11.483Z,23.67
2018-12-18T10:52:13.633Z,23.30
2018-12-18T10:54:15.868Z,24.72
2018-12-18T10:56:17.996Z,23.62
2018-12-18T10:58:23.920Z,25.10
2018-12-18T11:00:30.280Z,23.62
2018-12-18T11:02:32.430Z,25.82
2018-12-18T11:04:34.722Z,25.52
2018-12-18T11:06:36.939Z,26.73
2018-12-18T11:08:39.312Z,26.93
2018-12-18T11:10:41.505Z,24.82
2018-12-18T11:12:48.304Z,28.32
2018-12-18T11:14:50.464Z,27.00
2018-12-18T11:16:52.710Z,27.65
2018-12-18T11:18:54.855Z,27.75
2018-12-18T11:20:57.033Z,28.98
2018-12-18T11:22:59.193Z,28.25
2018-12-18T11:25:01.429Z,27.95
2018-12-18T11:27:03.644Z,29.82
2018-12-18T11:29:07.230Z,29.00
2018-12-18T15:17:14.614Z,17.92
2018-12-18T15:19:17.024Z,17.05
2018-12-18T15:21:19.192Z,15.40
2018-12-18T15:23:21.413Z,17.00
2018-12-18T15:25:23.610Z,14.68
2018-12-18T15:27:25.769Z,14.60
2018-12-18T15:29:27.961Z,14.80
2018-12-18T15:31:30.169Z,13.68
2018-12-18T15:33:32.548Z,14.33
2018-12-18T15:35:34.917Z,13.83
2018-12-18T15:37:53.207Z,13.05
2018-12-18T15:42:23.745Z,12.30
2018-12-18T15:44:36.709Z,12.78
2018-12-18T15:46:43.072Z,11.50
2018-12-18T15:48:45.352Z,13.58
2018-12-18T15:50:47.513Z,14.73
2018-12-18T15:52:49.808Z,13.93
2018-12-18T15:54:52.311Z,15.32
2018-12-18T15:56:58.321Z,14.80
2018-12-18T15:59:01.686Z,13.10
2018-12-18T16:01:04.001Z,12.82
2018-12-18T16:03:06.173Z,13.68
2018-12-18T16:05:08.316Z,12.68
2018-12-18T16:07:15.993Z,13.43
2018-12-18T16:09:14.657Z,13.38
2018-12-18T16:11:16.861Z,13.28
2018-12-18T16:13:22.733Z,14.23
2018-12-18T16:15:24.843Z,13.45
2018-12-18T16:17:27.246Z,13.68
2018-12-18T16:19:30.137Z,13.85
2018-12-18T16:21:32.331Z,12.88
2018-12-18T16:23:35.696Z,10.55
2018-12-18T16:25:37.878Z,11.28
2018-12-18T16:27:40.197Z,11.95
2018-12-18T16:29:42.702Z,13.28
2018-12-18T16:31:44.985Z,11.80
2018-12-18T16:33:47.178Z,12.07
2018-12-18T16:35:49.503Z,10.82
2018-12-18T16:37:51.849Z,12.98
2018-12-18T16:39:54.046Z,12.33
2018-12-18T16:41:56.379Z,11.88
2018-12-18T16:47:36.971Z,12.53
2018-12-18T16:49:39.595Z,10.72
2018-12-18T16:51:45.395Z,11.60
2018-12-18T16:53:48.102Z,10.98
2018-12-18T16:55:50.566Z,12.50
2018-12-18T16:57:53.434Z,11.80
2018-12-18T16:59:55.634Z,11.22
2018-12-18T17:01:57.891Z,11.53
2018-12-18T17:04:00.160Z,10.82
2018-12-18T17:06:02.466Z,12.35
2018-12-18T17:08:04.967Z,11.30
2018-12-18T17:10:07.310Z,11.12
2018-12-18T17:12:10.679Z,12.10
2018-12-18T17:14:13.139Z,10.20
2018-12-18T17:16:15.479Z,10.68
2018-12-18T17:18:17.692Z,10.88
2018-12-18T17:20:19.896Z,12.47
2018-12-18T17:22:22.611Z,12.47
2018-12-18T17:24:25.010Z,12.18
2018-12-18T17:26:27.221Z,11.43
2018-12-18T17:28:29.429Z,10.53
2018-12-18T17:30:31.617Z,11.10
2018-12-18T17:32:33.858Z,12.20
2018-12-18T17:34:37.133Z,11.78
2018-12-18T17:36:39.371Z,11.45
2018-12-18T17:38:41.549Z,12.13
2018-12-18T17:40:44.212Z,10.75
2018-12-18T17:42:46.496Z,11.95
2018-12-18T17:44:48.684Z,12.23
2018-12-18T17:46:50.964Z,10.90
2018-12-18T17:48:53.158Z,10.58
2018-12-18T17:50:55.463Z,11.85
2018-12-18T17:52:57.853Z,11.93
2018-12-18T17:55:00.108Z,11.55
2018-12-18T17:57:08.281Z,13.13
2018-12-18T17:59:10.889Z,11.35
2018-12-18T18:03:32.665Z,11.75
2018-12-18T18:05:36.119Z,10.58
2018-12-18T18:07:42.979Z,11.63
2018-12-18T18:12:31.983Z,12.47
2018-12-18T18:14:36.393Z,11.57
2018-12-18T18:16:38.625Z,11.93
2018-12-18T18:18:51.970Z,11.85
2018-12-18T18:23:36.880Z,11.35
2018-12-18T18:25:41.532Z,11.90
2018-12-18T20:47:40.784Z,12.60
2018-12-18T20:56:59.852Z,13.43
2018-12-18T20:59:02.155Z,14.35
2018-12-18T21:01:04.557Z,16.10
2018-12-18T21:03:06.994Z,15.53
2018-12-18T21:05:09.496Z,16.50
2018-12-18T21:07:11.709Z,15.95
2018-12-18T21:09:14.232Z,16.42
2018-12-18T21:11:16.373Z,17.15
2018-12-18T21:13:24.243Z,15.60
2018-12-18T21:15:26.412Z,17.05
2018-12-18T21:17:28.589Z,16.67
2018-12-18T21:19:30.756Z,16.77
2018-12-18T21:21:32.935Z,17.15
2018-12-18T21:23:35.106Z,17.25
2018-12-18T21:25:37.434Z,19.37
2018-12-18T21:27:39.697Z,16.55
2018-12-18T21:29:41.958Z,16.65
2018-12-18T21:31:44.296Z,17.27
2018-12-18T21:33:46.611Z,16.35
2018-12-18T21:35:48.917Z,17.32
2018-12-18T21:37:51.328Z,17.40
2018-12-18T21:39:53.582Z,15.95
2018-12-18T21:41:55.868Z,16.57
2018-12-18T21:43:58.678Z,17.92
2018-12-18T21:46:00.896Z,16.02
2018-12-18T21:48:03.208Z,16.45
2018-12-18T21:50:05.600Z,15.13
2018-12-18T21:52:07.801Z,16.15
2018-12-18T21:54:10.206Z,16.05
2018-12-18T21:56:12.457Z,16.00
2018-12-18T21:58:14.677Z,15.83
2018-12-18T22:00:16.858Z,16.05
2018-12-18T22:02:19.170Z,17.45
2018-12-18T22:04:21.533Z,14.87
2018-12-18T22:06:23.913Z,14.20
2018-12-18T22:08:26.151Z,14.30
2018-12-18T22:10:28.539Z,13.80
2018-12-18T22:12:30.801Z,14.43
2018-12-18T22:14:33.552Z,14.33
2018-12-18T22:16:36.021Z,13.10
2018-12-18T22:18:38.343Z,15.68
2018-12-18T22:20:40.763Z,13.32
2018-12-18T22:22:43.013Z,14.30
2018-12-18T22:24:45.573Z,12.63
2018-12-18T22:26:48.025Z,13.62
2018-12-18T22:28:50.368Z,14.20
2018-12-18T22:30:52.601Z,14.43
2018-12-18T22:32:54.793Z,14.53
2018-12-18T22:34:56.971Z,14.60
2018-12-18T22:36:59.275Z,12.78
2018-12-18T22:39:01.417Z,13.90
2018-12-18T22:41:03.589Z,13.10
2018-12-18T22:43:05.863Z,12.93
2018-12-18T22:45:08.564Z,13.78
2018-12-18T22:47:10.701Z,12.85
2018-12-18T22:49:12.877Z,12.85
2018-12-18T22:51:15.063Z,12.68
2018-12-18T22:53:17.389Z,14.28
2018-12-18T22:55:20.798Z,13.32
2018-12-18T22:57:23.061Z,13.00
2018-12-18T22:59:25.238Z,13.70
2018-12-18T23:01:33.044Z,14.70
2018-12-18T23:03:35.399Z,14.00
2018-12-18T23:05:37.660Z,13.40
2018-12-18T23:07:40.079Z,13.75
2018-12-18T23:09:42.300Z,12.75
2018-12-18T23:11:44.503Z,14.53
2018-12-18T23:13:48.205Z,14.30
2018-12-18T23:15:50.536Z,15.05
2018-12-18T23:17:52.708Z,13.93
2018-12-18T23:19:54.876Z,15.40
2018-12-18T23:21:57.060Z,15.53
2018-12-18T23:23:59.208Z,14.45
2018-12-18T23:26:01.372Z,16.10
2018-12-18T23:28:03.576Z,15.55
2018-12-18T23:30:05.961Z,15.13
2018-12-18T23:32:08.141Z,16.07
2018-12-18T23:34:10.360Z,14.90
2018-12-18T23:36:12.539Z,17.30
2018-12-18T23:38:14.711Z,14.85
2018-12-18T23:40:16.960Z,15.15
2018-12-18T23:42:19.140Z,14.87
2018-12-18T23:44:21.390Z,15.13
2018-12-18T23:46:23.520Z,15.85
2018-12-18T23:48:25.743Z,15.83
2018-12-18T23:50:28.091Z,16.10
2018-12-18T23:52:30.332Z,15.15
2018-12-18T23:54:32.444Z,16.65
2018-12-18T23:56:34.559Z,15.70
2018-12-18T23:58:36.913Z,16.90
